Time;durP1;ratioP1;P1;durP2;ratioP2;P2;SDS_P1;SDS_P2;PMS_P1;PMS_P2;Temp;Humidity;BMP_temperature;BMP_pressure;BME280_temperature;BME280_humidity;BME280_pressure;Samples;Min_cycle;Max_cycle;Signal;HPM_P1;HPM_P2
2022/07/17 00:02:07;;;;;;;10.45;2.55;;;14.00;99.90;;;;;;5046810;28;20199;-75
2022/07/17 00:04:35;;;;;;;6.03;2.70;;;14.00;99.90;;;;;;5043633;28;20281;-74
2022/07/17 00:07:02;;;;;;;7.25;2.45;;;14.10;99.90;;;;;;5043230;28;20218;-74
2022/07/17 00:09:30;;;;;;;7.13;3.33;;;14.00;99.90;;;;;;5033340;28;20200;-73
2022/07/17 00:11:57;;;;;;;10.77;2.90;;;14.00;99.90;;;;;;5037817;28;20667;-74
2022/07/17 00:14:24;;;;;;;3.67;2.55;;;14.00;99.90;;;;;;5035164;28;20307;-73
2022/07/17 00:16:51;;;;;;;5.00;2.83;;;13.90;99.90;;;;;;5048735;28;20706;-75
2022/07/17 00:19:18;;;;;;;6.97;3.28;;;13.90;99.90;;;;;;5038339;28;20218;-75
2022/07/17 00:21:47;;;;;;;9.80;3.88;;;13.90;99.90;;;;;;5046195;28;20257;-74
2022/07/17 00:24:19;;;;;;;8.90;2.95;;;13.80;99.90;;;;;;5044473;28;20310;-75
2022/07/17 00:26:47;;;;;;;7.03;3.40;;;13.90;99.90;;;;;;5049332;28;20226;-75
2022/07/17 00:29:14;;;;;;;9.05;3.50;;;13.80;99.90;;;;;;5050782;28;20287;-75
2022/07/17 00:31:41;;;;;;;13.10;5.05;;;13.70;99.90;;;;;;5047953;28;20200;-74
2022/07/17 00:34:08;;;;;;;7.47;2.10;;;13.80;99.90;;;;;;5054858;28;20333;-75
2022/07/17 00:36:35;;;;;;;5.00;2.33;;;13.80;99.90;;;;;;5051442;28;20355;-74
2022/07/17 00:39:04;;;;;;;6.90;2.40;;;13.80;99.90;;;;;;5051224;28;20199;-74
2022/07/17 00:41:31;;;;;;;9.75;2.72;;;13.80;99.90;;;;;;5044421;28;20666;-75
2022/07/17 00:44:04;;;;;;;7.82;3.53;;;13.80;99.90;;;;;;5051441;28;20251;-74
2022/07/17 00:46:31;;;;;;;5.28;3.15;;;13.70;99.90;;;;;;5058927;28;20231;-73
2022/07/17 00:48:58;;;;;;;5.80;2.50;;;13.70;99.90;;;;;;5055578;28;20271;-75
2022/07/17 00:51:25;;;;;;;6.35;3.53;;;13.70;99.90;;;;;;5048963;28;20239;-75
2022/07/17 00:53:53;;;;;;;7.65;3.05;;;13.60;99.90;;;;;;5063046;28;20266;-74
2022/07/17 00:56:23;;;;;;;6.90;3.15;;;13.50;99.90;;;;;;5053645;28;20203;-75
2022/07/17 00:58:51;;;;;;;5.88;2.70;;;13.50;99.90;;;;;;5055084;28;20275;-75
2022/07/17 01:01:18;;;;;;;3.25;2.13;;;13.50;99.90;;;;;;5060542;28;20282;-75
2022/07/17 01:03:45;;;;;;;6.70;2.92;;;13.60;99.90;;;;;;5041981;28;20274;-73
2022/07/17 01:06:12;;;;;;;4.93;3.05;;;13.60;99.90;;;;;;5039544;28;20199;-75
2022/07/17 01:08:40;;;;;;;7.63;3.15;;;13.50;99.90;;;;;;5038257;28;20755;-75
2022/07/17 01:11:09;;;;;;;7.35;3.85;;;13.50;99.90;;;;;;5041782;28;20243;-73
2022/07/17 01:13:37;;;;;;;5.20;2.75;;;13.50;99.90;;;;;;5041832;28;20726;-74
2022/07/17 01:16:04;;;;;;;7.15;3.53;;;13.50;99.90;;;;;;5040739;28;20215;-74
2022/07/17 01:18:31;;;;;;;24.95;15.63;;;13.50;99.90;;;;;;5040798;28;20290;-74
2022/07/17 01:21:06;;;;;;;13.93;6.85;;;13.50;99.90;;;;;;5049624;28;20281;-74
2022/07/17 01:23:33;;;;;;;6.10;3.72;;;13.50;99.90;;;;;;5039257;28;20216;-75
2022/07/17 01:26:01;;;;;;;8.63;3.95;;;13.40;99.90;;;;;;5051456;28;20202;-74
2022/07/17 01:28:30;;;;;;;9.18;2.42;;;13.30;99.90;;;;;;5046356;28;20874;-73
2022/07/17 01:30:57;;;;;;;7.47;3.90;;;13.20;99.90;;;;;;5046749;28;20200;-74
2022/07/17 01:33:24;;;;;;;9.45;4.03;;;13.20;99.90;;;;;;5051820;28;20301;-73
2022/07/17 01:35:51;;;;;;;9.10;3.50;;;13.20;99.90;;;;;;5039171;28;20203;-74
2022/07/17 01:38:19;;;;;;;5.93;2.67;;;13.20;99.90;;;;;;5038451;28;20283;-74
2022/07/17 01:40:46;;;;;;;8.63;3.20;;;13.10;99.90;;;;;;5051896;28;20200;-74
2022/07/17 01:43:13;;;;;;;6.32;3.35;;;13.20;99.90;;;;;;5053760;28;20309;-73
2022/07/17 01:45:42;;;;;;;10.63;3.72;;;13.10;99.90;;;;;;5050649;28;20237;-74
2022/07/17 01:48:09;;;;;;;4.00;2.50;;;13.10;99.90;;;;;;5054078;28;20262;-73
2022/07/17 01:50:36;;;;;;;9.48;4.93;;;13.20;99.90;;;;;;5045124;28;20286;-74
2022/07/17 01:53:03;;;;;;;6.72;2.75;;;13.20;99.90;;;;;;5053975;28;20258;-73
2022/07/17 01:55:31;;;;;;;5.22;2.63;;;13.10;99.90;;;;;;5054116;28;20202;-73
2022/07/17 01:57:58;;;;;;;5.45;2.95;;;13.10;99.90;;;;;;5053090;28;20745;-75
2022/07/17 02:00:26;;;;;;;8.13;3.35;;;13.10;99.90;;;;;;5051636;28;20289;-73
2022/07/17 02:02:52;;;;;;;3.72;2.40;;;13.10;99.90;;;;;;5050979;28;20315;-74
2022/07/17 02:05:20;;;;;;;6.82;3.05;;;13.00;99.90;;;;;;5050063;28;20209;-73
2022/07/17 02:07:47;;;;;;;7.68;3.58;;;13.00;99.90;;;;;;5047760;28;20226;-75
2022/07/17 02:10:15;;;;;;;5.00;3.17;;;13.00;99.90;;;;;;5049143;28;20204;-74
2022/07/17 02:12:43;;;;;;;6.88;2.95;;;13.00;99.90;;;;;;5053395;28;20257;-73
2022/07/17 02:15:11;;;;;;;6.53;3.10;;;13.00;99.90;;;;;;5048321;28;20287;-74
2022/07/17 02:17:38;;;;;;;8.30;3.00;;;13.00;99.90;;;;;;5042199;28;20195;-74
2022/07/17 02:20:07;;;;;;;4.38;2.83;;;13.00;99.90;;;;;;5045698;28;20641;-74
2022/07/17 02:22:34;;;;;;;5.38;3.13;;;12.90;99.90;;;;;;5044423;28;20211;-74
2022/07/17 02:25:01;;;;;;;4.82;3.35;;;12.90;99.90;;;;;;5052468;28;20611;-74
2022/07/17 02:27:28;;;;;;;8.48;2.83;;;12.90;99.90;;;;;;5043357;28;20272;-74
2022/07/17 02:29:56;;;;;;;8.02;3.67;;;12.90;99.90;;;;;;5047843;28;20250;-73
2022/07/17 02:32:23;;;;;;;8.65;2.88;;;12.90;99.90;;;;;;5050140;28;20290;-74
2022/07/17 02:34:50;;;;;;;8.43;3.13;;;12.80;99.90;;;;;;5040637;28;20214;-74
2022/07/17 02:37:17;;;;;;;7.43;4.50;;;12.90;99.90;;;;;;5042797;28;20245;-73
2022/07/17 02:39:53;;;;;;;7.05;3.75;;;12.80;99.90;;;;;;5044945;28;20285;-74
2022/07/17 02:42:21;;;;;;;6.43;2.83;;;12.80;99.90;;;;;;5038760;28;20256;-74
2022/07/17 02:44:47;;;;;;;11.32;3.90;;;12.80;99.90;;;;;;5061000;28;20385;-74
2022/07/17 02:47:23;;;;;;;8.95;4.10;;;12.80;99.90;;;;;;5072730;28;20240;-75
2022/07/17 02:49:50;;;;;;;3.40;2.50;;;12.70;99.90;;;;;;5049917;28;20203;-73
2022/07/17 02:52:18;;;;;;;10.93;3.65;;;12.70;99.90;;;;;;5052298;28;20238;-74
2022/07/17 02:54:45;;;;;;;6.55;3.10;;;12.70;99.90;;;;;;5043712;28;20647;-74
2022/07/17 02:57:13;;;;;;;8.93;3.15;;;12.70;99.90;;;;;;5043954;28;20204;-74
2022/07/17 02:59:40;;;;;;;5.82;2.90;;;12.70;99.90;;;;;;5044512;28;20291;-75
2022/07/17 03:02:07;;;;;;;7.47;3.03;;;12.80;99.90;;;;;;5042955;28;20218;-74
2022/07/17 03:04:35;;;;;;;5.38;2.72;;;12.80;99.90;;;;;;5044232;28;20258;-73
2022/07/17 03:07:02;;;;;;;9.23;3.33;;;12.80;99.90;;;;;;5045429;28;20287;-74
2022/07/17 03:09:29;;;;;;;12.43;3.33;;;12.80;99.90;;;;;;5044444;28;20302;-73
2022/07/17 03:11:56;;;;;;;8.25;2.75;;;12.70;99.90;;;;;;5052720;28;20202;-74
2022/07/17 03:14:24;;;;;;;7.22;3.17;;;12.70;99.90;;;;;;5053106;28;20225;-73
2022/07/17 03:16:50;;;;;;;9.27;3.30;;;12.70;99.90;;;;;;5049156;28;20230;-74
2022/07/17 03:19:18;;;;;;;4.10;3.08;;;12.70;99.90;;;;;;5051351;28;20202;-74
2022/07/17 03:21:48;;;;;;;6.30;2.97;;;12.70;99.90;;;;;;5052013;28;20206;-73
2022/07/17 03:24:15;;;;;;;5.85;3.10;;;12.60;99.90;;;;;;5047781;28;20327;-73
2022/07/17 03:26:42;;;;;;;7.10;3.03;;;12.60;99.90;;;;;;5057185;28;20202;-73
2022/07/17 03:29:09;;;;;;;6.40;3.40;;;12.60;99.90;;;;;;5053245;28;20233;-73
2022/07/17 03:31:38;;;;;;;11.35;3.75;;;12.60;99.90;;;;;;5047609;28;20211;-74
2022/07/17 03:34:04;;;;;;;8.63;3.08;;;12.60;99.90;;;;;;5045343;28;20607;-75
2022/07/17 03:36:31;;;;;;;4.80;2.72;;;12.60;99.90;;;;;;5045444;28;20204;-73
2022/07/17 03:39:00;;;;;;;7.60;3.22;;;12.60;99.90;;;;;;5047457;28;20205;-72
2022/07/17 03:41:26;;;;;;;6.30;3.33;;;12.70;99.90;;;;;;5042133;28;20211;-73
2022/07/17 03:43:53;;;;;;;10.73;3.83;;;12.70;99.90;;;;;;5043618;28;20254;-73
2022/07/17 03:46:20;;;;;;;12.18;3.50;;;12.80;99.90;;;;;;5052303;28;20241;-73
2022/07/17 03:48:48;;;;;;;7.93;3.00;;;12.90;99.90;;;;;;5057096;28;20244;-73
2022/07/17 03:51:15;;;;;;;10.23;3.60;;;12.80;99.90;;;;;;5049849;28;20286;-73
2022/07/17 03:53:42;;;;;;;5.47;4.05;;;12.80;99.90;;;;;;5046573;28;20230;-73
2022/07/17 03:56:11;;;;;;;6.65;3.45;;;12.80;99.90;;;;;;5047085;28;20285;-72
2022/07/17 03:58:38;;;;;;;5.45;2.90;;;12.80;99.90;;;;;;5055555;28;20289;-72
2022/07/17 04:01:07;;;;;;;5.80;2.90;;;12.80;99.90;;;;;;5054011;28;20282;-73
2022/07/17 04:03:34;;;;;;;8.80;3.15;;;12.90;99.90;;;;;;5048289;28;20228;-75
2022/07/17 04:06:03;;;;;;;6.15;3.05;;;12.90;99.90;;;;;;5056099;28;20293;-74
2022/07/17 04:08:31;;;;;;;8.45;3.05;;;13.00;99.90;;;;;;5062447;28;20547;-74
2022/07/17 04:11:00;;;;;;;5.68;2.75;;;13.00;99.90;;;;;;5055187;28;20626;-75
2022/07/17 04:13:28;;;;;;;8.50;3.63;;;13.10;99.90;;;;;;5049730;28;20330;-73
2022/07/17 04:15:59;;;;;;;9.95;3.22;;;13.10;99.90;;;;;;5055108;28;20650;-74
2022/07/17 04:18:28;;;;;;;3.85;3.20;;;13.20;99.90;;;;;;5042981;28;20261;-74
2022/07/17 04:20:58;;;;;;;18.23;10.75;;;13.20;99.90;;;;;;5053241;28;20203;-74
2022/07/17 04:23:25;;;;;;;7.22;3.30;;;13.20;99.90;;;;;;5051693;28;20252;-73
2022/07/17 04:25:52;;;;;;;5.60;3.10;;;13.40;99.90;;;;;;5042565;28;20282;-73
2022/07/17 04:28:19;;;;;;;7.68;3.38;;;13.40;99.90;;;;;;5045396;28;20765;-73
2022/07/17 04:30:48;;;;;;;6.55;2.70;;;13.50;99.90;;;;;;5049709;28;20245;-73
2022/07/17 04:33:15;;;;;;;7.05;3.15;;;13.60;99.90;;;;;;5041357;28;20228;-73
2022/07/17 04:35:42;;;;;;;8.25;3.08;;;13.60;99.90;;;;;;5047778;28;20277;-75
2022/07/17 04:38:10;;;;;;;10.00;5.00;;;13.70;99.90;;;;;;5056686;28;20192;-74
2022/07/17 04:40:38;;;;;;;4.82;3.20;;;13.90;99.90;;;;;;5056595;28;20231;-75
2022/07/17 04:43:06;;;;;;;5.30;2.97;;;13.90;99.90;;;;;;5055592;28;20263;-74
2022/07/17 04:45:33;;;;;;;12.57;4.03;;;14.00;99.90;;;;;;5042086;28;20239;-74
2022/07/17 04:48:04;;;;;;;9.00;3.15;;;14.00;99.90;;;;;;5041206;28;20686;-73
2022/07/17 04:50:31;;;;;;;6.75;2.58;;;14.00;99.90;;;;;;5044801;28;20285;-73
2022/07/17 04:52:58;;;;;;;11.93;3.72;;;14.10;99.90;;;;;;5038534;28;20668;-73
2022/07/17 04:55:25;;;;;;;5.20;3.15;;;14.10;99.90;;;;;;5047207;28;20290;-74
2022/07/17 04:57:53;;;;;;;12.50;5.35;;;14.20;99.90;;;;;;5059993;28;20201;-74
2022/07/17 05:00:21;;;;;;;8.38;3.13;;;14.10;99.90;;;;;;5049183;28;20301;-74
2022/07/17 05:02:48;;;;;;;8.57;3.35;;;14.10;99.90;;;;;;5053681;28;20639;-73
2022/07/17 05:05:16;;;;;;;8.73;4.00;;;14.10;99.90;;;;;;5056093;28;20650;-73
2022/07/17 05:07:43;;;;;;;8.38;3.50;;;14.20;99.90;;;;;;5050509;28;20207;-73
2022/07/17 05:10:10;;;;;;;8.95;3.10;;;14.20;99.90;;;;;;5054514;28;20556;-73
2022/07/17 05:12:38;;;;;;;9.20;4.05;;;14.30;99.90;;;;;;5049584;28;20235;-73
2022/07/17 05:15:06;;;;;;;7.45;4.20;;;14.30;99.90;;;;;;5052803;28;20199;-73
2022/07/17 05:17:33;;;;;;;5.20;3.08;;;14.30;99.90;;;;;;5054337;28;20283;-73
2022/07/17 05:20:00;;;;;;;8.25;3.85;;;14.40;99.90;;;;;;5052749;28;20295;-73
2022/07/17 05:22:28;;;;;;;6.63;3.10;;;14.50;99.90;;;;;;5054522;28;20224;-73
2022/07/17 05:24:55;;;;;;;6.90;2.95;;;14.70;99.90;;;;;;5048613;28;20287;-74
2022/07/17 05:27:22;;;;;;;9.30;3.15;;;14.70;99.90;;;;;;5049882;28;20286;-74
2022/07/17 05:29:49;;;;;;;5.45;2.80;;;14.70;99.90;;;;;;5042660;28;20215;-73
2022/07/17 05:32:16;;;;;;;6.03;3.03;;;14.90;99.90;;;;;;5042734;28;20205;-73
2022/07/17 05:34:43;;;;;;;4.43;3.05;;;15.00;99.90;;;;;;5042827;28;20212;-72
2022/07/17 05:37:10;;;;;;;5.90;2.80;;;15.00;99.90;;;;;;5049679;28;20242;-72
2022/07/17 05:39:39;;;;;;;3.97;2.90;;;15.10;99.90;;;;;;5042919;28;20274;-72
2022/07/17 05:42:06;;;;;;;13.18;5.13;;;15.20;99.90;;;;;;5041611;28;20200;-73
2022/07/17 05:44:33;;;;;;;7.72;2.92;;;15.30;99.90;;;;;;5038004;28;20230;-72
2022/07/17 05:47:00;;;;;;;6.65;2.85;;;15.40;99.90;;;;;;5041192;28;20204;-75
2022/07/17 05:49:27;;;;;;;5.50;3.35;;;15.50;99.90;;;;;;5041628;28;20783;-75
2022/07/17 05:51:54;;;;;;;6.47;2.90;;;15.60;99.90;;;;;;5053807;28;20198;-74
2022/07/17 05:54:21;;;;;;;5.13;2.70;;;15.80;99.90;;;;;;5044461;28;20301;-73
2022/07/17 05:56:49;;;;;;;7.43;2.72;;;16.00;99.90;;;;;;5039832;28;20292;-75
2022/07/17 05:59:16;;;;;;;5.40;2.43;;;16.20;99.90;;;;;;5040419;28;20194;-73
2022/07/17 06:01:43;;;;;;;6.13;2.80;;;16.50;99.90;;;;;;5048818;28;20891;-73
2022/07/17 06:04:10;;;;;;;6.53;2.93;;;16.80;99.90;;;;;;5038850;28;20469;-73
2022/07/17 06:06:37;;;;;;;4.73;2.37;;;17.50;99.90;;;;;;5041710;28;20522;-73
2022/07/17 06:09:04;;;;;;;9.93;2.10;;;18.90;99.90;;;;;;5039718;28;20574;-74
2022/07/17 06:11:31;;;;;;;8.20;2.20;;;20.00;99.90;;;;;;5045794;28;20458;-72
2022/07/17 06:13:59;;;;;;;13.13;2.70;;;20.80;99.60;;;;;;5039629;28;20619;-74
2022/07/17 06:16:26;;;;;;;5.60;1.97;;;21.40;97.50;;;;;;5046277;28;20456;-74
2022/07/17 06:18:53;;;;;;;5.43;2.20;;;21.90;96.20;;;;;;5047669;28;20453;-73
2022/07/17 06:21:20;;;;;;;5.80;2.13;;;22.50;94.30;;;;;;5049039;28;20442;-73
2022/07/17 06:23:47;;;;;;;6.93;2.03;;;22.60;93.50;;;;;;5046374;28;20472;-74
2022/07/17 06:26:14;;;;;;;5.60;2.10;;;21.90;93.20;;;;;;5055455;28;20457;-73
2022/07/17 06:28:41;;;;;;;4.17;1.53;;;21.00;94.50;;;;;;5058256;28;20497;-73
2022/07/17 06:31:09;;;;;;;7.40;2.40;;;20.80;95.70;;;;;;5063574;28;20528;-74
2022/07/17 06:33:36;;;;;;;8.73;2.53;;;20.30;96.60;;;;;;5048050;28;20564;-74
2022/07/17 06:36:06;;;;;;;4.33;1.93;;;19.80;97.70;;;;;;5057912;28;20462;-74
2022/07/17 06:38:34;;;;;;;5.27;2.53;;;19.60;99.00;;;;;;5054829;28;20499;-73
2022/07/17 06:41:01;;;;;;;2.97;1.93;;;19.60;99.80;;;;;;5052598;28;20442;-73
2022/07/17 06:43:28;;;;;;;6.23;2.17;;;19.90;98.90;;;;;;5045473;28;20540;-74
2022/07/17 06:45:55;;;;;;;3.83;1.87;;;20.00;99.00;;;;;;5049980;28;20965;-74
2022/07/17 06:48:24;;;;;;;7.73;1.80;;;20.20;99.00;;;;;;5054021;28;20525;-75
2022/07/17 06:50:51;;;;;;;4.47;2.00;;;20.80;97.60;;;;;;5046736;28;20456;-75
2022/07/17 06:53:18;;;;;;;7.03;1.90;;;21.40;96.00;;;;;;5040888;28;20496;-76
2022/07/17 06:55:45;;;;;;;9.50;2.30;;;22.20;94.70;;;;;;5058875;28;20451;-72
2022/07/17 06:58:12;;;;;;;20.70;3.10;;;23.20;92.80;;;;;;5051546;28;20446;-71
2022/07/17 07:00:39;;;;;;;5.00;2.83;;;23.70;91.00;;;;;;5042701;28;20446;-71
2022/07/17 07:03:07;;;;;;;13.10;2.50;;;23.40;90.40;;;;;;5053580;28;20534;-75
2022/07/17 07:05:38;;;;;;;3.20;1.87;;;23.40;91.10;;;;;;5049743;28;20450;-74
2022/07/17 07:08:05;;;;;;;11.80;2.93;;;23.90;90.50;;;;;;5045763;28;20892;-72
2022/07/17 07:10:32;;;;;;;8.60;2.40;;;24.20;90.30;;;;;;5049069;28;20540;-73
2022/07/17 07:12:59;;;;;;;7.30;1.73;;;24.60;89.50;;;;;;5053376;28;20542;-71
2022/07/17 07:15:26;;;;;;;5.80;2.33;;;25.00;88.20;;;;;;5042464;28;20505;-75
2022/07/17 07:17:53;;;;;;;5.20;1.40;;;26.00;86.40;;;;;;5043067;28;20446;-74
2022/07/17 07:20:20;;;;;;;4.37;1.30;;;26.90;83.10;;;;;;5038049;28;20917;-76
2022/07/17 07:22:48;;;;;;;4.70;1.13;;;27.70;79.20;;;;;;5044002;28;20465;-75
2022/07/17 07:25:15;;;;;;;5.60;1.50;;;28.10;77.50;;;;;;5053366;28;20983;-75
2022/07/17 07:27:42;;;;;;;4.03;1.40;;;28.70;75.30;;;;;;5046938;28;20442;-76
2022/07/17 07:30:10;;;;;;;4.27;1.60;;;28.90;73.10;;;;;;5051918;28;20508;-74
2022/07/17 07:32:37;;;;;;;3.53;1.37;;;28.70;73.70;;;;;;5052124;28;20806;-74
2022/07/17 07:35:05;;;;;;;3.47;1.43;;;28.50;73.20;;;;;;5048857;28;20450;-73
2022/07/17 07:37:32;;;;;;;4.67;1.37;;;28.20;73.40;;;;;;5052336;28;20452;-74
2022/07/17 07:40:01;;;;;;;10.17;2.10;;;28.60;73.30;;;;;;5043711;28;20810;-73
2022/07/17 07:42:29;;;;;;;6.10;1.87;;;29.10;72.10;;;;;;5052516;28;20473;-73
2022/07/17 07:44:55;;;;;;;8.30;1.67;;;29.30;70.20;;;;;;5050933;28;20525;-74
2022/07/17 07:47:22;;;;;;;4.43;1.67;;;29.90;69.30;;;;;;5044980;28;20514;-75
2022/07/17 07:49:49;;;;;;;3.90;1.50;;;30.00;67.60;;;;;;5050790;28;20493;-74
2022/07/17 07:52:18;;;;;;;7.50;1.47;;;30.20;66.10;;;;;;5047149;28;20441;-73
2022/07/17 07:54:45;;;;;;;6.87;1.63;;;29.80;66.90;;;;;;5044041;28;20446;-73
2022/07/17 07:57:14;;;;;;;4.27;1.70;;;29.50;67.20;;;;;;5058796;28;20481;-73
2022/07/17 07:59:41;;;;;;;4.67;1.60;;;28.80;68.00;;;;;;5061217;28;20477;-73
2022/07/17 08:02:08;;;;;;;9.60;2.00;;;28.10;70.30;;;;;;5043012;28;20983;-73
2022/07/17 08:04:36;;;;;;;6.37;1.80;;;26.90;72.50;;;;;;5046614;28;20474;-73
2022/07/17 08:07:03;;;;;;;6.50;2.07;;;25.90;75.40;;;;;;5042034;28;20472;-74
2022/07/17 08:09:30;;;;;;;2.50;1.27;;;25.00;78.40;;;;;;5043465;28;20573;-72
2022/07/17 08:11:57;;;;;;;2.20;1.50;;;24.90;79.90;;;;;;5049417;28;20520;-73
2022/07/17 08:14:25;;;;;;;3.57;1.33;;;25.20;80.40;;;;;;5052514;28;20476;-72
2022/07/17 08:16:52;;;;;;;3.67;1.73;;;26.30;78.60;;;;;;5050363;28;20439;-73
2022/07/17 08:19:19;;;;;;;4.80;1.40;;;26.60;76.80;;;;;;5039760;28;20442;-74
2022/07/17 08:21:46;;;;;;;2.87;1.50;;;26.30;77.70;;;;;;5044068;28;20446;-73
2022/07/17 08:24:14;;;;;;;4.23;1.70;;;25.40;78.70;;;;;;5047615;28;20544;-74
2022/07/17 08:26:41;;;;;;;4.23;1.50;;;25.00;80.60;;;;;;5050876;28;20458;-73
2022/07/17 08:29:10;;;;;;;4.60;2.10;;;24.70;81.10;;;;;;5054275;28;20481;-72
2022/07/17 08:31:44;;;;;;;5.97;1.60;;;24.70;80.80;;;;;;5046864;28;20450;-72
2022/07/17 08:34:14;;;;;;;5.07;1.63;;;24.90;81.60;;;;;;5058118;28;20480;-73
2022/07/17 08:36:42;;;;;;;5.00;1.87;;;25.10;81.30;;;;;;5044548;28;20455;-74
2022/07/17 08:39:09;;;;;;;5.50;1.83;;;24.90;81.10;;;;;;5037889;28;20489;-73
2022/07/17 08:41:38;;;;;;;3.63;1.60;;;24.90;81.50;;;;;;5054930;28;20463;-74
2022/07/17 08:44:06;;;;;;;7.43;2.07;;;24.90;81.50;;;;;;5056378;28;20478;-74
2022/07/17 08:46:35;;;;;;;3.90;2.27;;;24.70;82.30;;;;;;5055756;28;20524;-75
2022/07/17 08:49:06;;;;;;;7.03;2.58;;;24.90;82.60;;;;;;5047957;28;20442;-73
2022/07/17 08:51:33;;;;;;;10.03;2.80;;;25.10;81.50;;;;;;5042448;28;20213;-72
2022/07/17 08:54:02;;;;;;;5.13;2.10;;;24.80;82.80;;;;;;5054164;28;20553;-73
2022/07/17 08:56:29;;;;;;;5.37;2.20;;;24.80;82.80;;;;;;5045927;28;20533;-72
2022/07/17 08:58:57;;;;;;;4.10;2.00;;;25.30;83.00;;;;;;5050667;28;20445;-74
2022/07/17 09:01:24;;;;;;;5.47;1.40;;;26.40;79.10;;;;;;5058157;28;20529;-73
2022/07/17 09:04:06;;;;;;;7.00;2.00;;;27.70;75.50;;;;;;5050254;28;20466;-74
2022/07/17 09:06:35;;;;;;;2.93;1.23;;;28.80;72.70;;;;;;5056250;28;20437;-74
2022/07/17 09:09:06;;;;;;;2.50;1.47;;;29.00;71.10;;;;;;5053893;28;20581;-72
2022/07/17 09:11:44;;;;;;;3.07;1.77;;;29.60;69.90;;;;;;5052859;28;20454;-72
2022/07/17 09:14:12;;;;;;;2.80;1.40;;;29.20;70.50;;;;;;5049169;28;21005;-73
2022/07/17 09:16:49;;;;;;;4.03;1.43;;;28.80;70.00;;;;;;5048518;28;20523;-76
2022/07/17 09:19:26;;;;;;;3.00;1.40;;;28.60;69.30;;;;;;5060534;28;20468;-73
2022/07/17 09:22:05;;;;;;;6.37;1.30;;;28.70;70.40;;;;;;5057969;28;20881;-74
2022/07/17 09:24:45;;;;;;;3.13;1.70;;;29.10;68.30;;;;;;5059539;28;20472;-76
2022/07/17 09:27:17;;;;;;;2.43;1.13;;;29.50;66.90;;;;;;5070606;28;20509;-81
2022/07/17 09:29:55;;;;;;;4.60;1.93;;;30.50;65.30;;;;;;5057188;28;20895;-75
2022/07/17 09:32:24;;;;;;;3.17;1.50;;;30.70;65.20;;;;;;5058743;28;20839;-79
2022/07/17 09:34:54;;;;;;;4.50;1.50;;;30.50;64.60;;;;;;5056743;28;20829;-80
2022/07/17 09:37:24;;;;;;;2.77;1.10;;;30.00;64.60;;;;;;5052648;28;20476;-79
2022/07/17 09:39:53;;;;;;;5.20;4.40;;;29.50;64.80;;;;;;5052857;28;20435;-77
2022/07/17 09:42:26;;;;;;;4.93;2.03;;;28.80;66.10;;;;;;5040942;28;20474;-79
2022/07/17 09:45:11;;;;;;;4.37;1.57;;;28.80;67.10;;;;;;5070608;28;20446;-77
2022/07/17 09:47:39;;;;;;;5.43;1.47;;;28.80;67.70;;;;;;5051650;28;20477;-80
2022/07/17 09:50:09;;;;;;;5.43;1.93;;;28.70;67.40;;;;;;5059159;28;20510;-79
2022/07/17 09:52:38;;;;;;;3.83;1.40;;;29.20;67.60;;;;;;5056143;28;20836;-78
2022/07/17 09:55:06;;;;;;;3.23;1.43;;;29.10;67.10;;;;;;5044808;28;20485;-78
2022/07/17 09:57:35;;;;;;;4.40;1.83;;;28.80;66.90;;;;;;5051028;28;20659;-76
2022/07/17 10:00:05;;;;;;;3.57;1.13;;;28.80;67.30;;;;;;5044845;28;20451;-77
2022/07/17 10:02:33;;;;;;;2.43;1.20;;;28.80;66.70;;;;;;5046848;28;20453;-77
2022/07/17 10:05:00;;;;;;;5.93;1.40;;;28.60;67.20;;;;;;5049335;28;20541;-77
2022/07/17 10:07:28;;;;;;;4.40;1.60;;;28.80;66.40;;;;;;5040954;28;20462;-77
2022/07/17 10:09:59;;;;;;;2.20;1.50;;;29.20;67.30;;;;;;5043538;28;20557;-77
2022/07/17 10:12:26;;;;;;;3.10;2.00;;;29.00;66.10;;;;;;5052138;28;20438;-77
2022/07/17 10:14:54;;;;;;;6.13;2.07;;;28.90;67.60;;;;;;5060947;28;20958;-77
2022/07/17 10:17:23;;;;;;;3.90;1.90;;;28.90;66.70;;;;;;5044777;28;20454;-77
2022/07/17 10:19:52;;;;;;;3.70;1.33;;;29.00;65.10;;;;;;5041536;28;20779;-77
2022/07/17 10:22:21;;;;;;;3.03;1.70;;;29.30;64.00;;;;;;5042302;28;21110;-78
2022/07/17 10:24:49;;;;;;;5.93;2.30;;;28.90;62.90;;;;;;5040467;28;20465;-78
2022/07/17 10:27:21;;;;;;;3.40;1.30;;;28.80;65.60;;;;;;5047110;28;20785;-77
2022/07/17 10:29:59;;;;;;;3.50;2.40;;;28.70;66.30;;;;;;5043744;28;20565;-78
2022/07/17 10:32:26;;;;;;;6.90;3.70;;;28.10;66.40;;;;;;5047463;28;20468;-78
2022/07/17 10:34:58;;;;;;;3.17;1.70;;;28.50;67.20;;;;;;5047955;28;20838;-75
2022/07/17 10:37:27;;;;;;;5.03;2.17;;;28.50;66.30;;;;;;5051651;28;20533;-77
2022/07/17 10:39:55;;;;;;;4.10;1.70;;;28.50;64.90;;;;;;5040723;28;20913;-78
2022/07/17 10:42:43;;;;;;;3.27;1.70;;;28.30;66.30;;;;;;5044405;28;20514;-78
2022/07/17 10:45:13;;;;;;;4.80;2.20;;;28.00;66.70;;;;;;5043489;28;20931;-77
2022/07/17 10:47:51;;;;;;;5.27;1.50;;;27.70;68.00;;;;;;5049447;28;20450;-77
2022/07/17 10:50:20;;;;;;;4.77;1.77;;;26.90;68.90;;;;;;5041220;28;20560;-77
2022/07/17 10:53:04;;;;;;;4.17;1.70;;;26.30;69.70;;;;;;5049480;28;20470;-77
2022/07/17 10:55:32;;;;;;;3.90;2.33;;;25.90;71.20;;;;;;5050227;28;20518;-77
2022/07/17 10:58:00;;;;;;;2.70;1.27;;;25.60;71.40;;;;;;5051138;28;20478;-78
2022/07/17 11:00:28;;;;;;;3.03;1.20;;;25.30;73.20;;;;;;5044309;28;20481;-77
2022/07/17 11:02:55;;;;;;;6.20;1.80;;;25.20;73.80;;;;;;5037650;28;20535;-77
2022/07/17 11:05:23;;;;;;;2.80;1.63;;;25.30;74.00;;;;;;5039127;28;20469;-77
2022/07/17 11:07:58;;;;;;;5.53;1.27;;;25.30;73.10;;;;;;5035977;28;20539;-77
2022/07/17 11:10:28;;;;;;;3.43;1.30;;;25.20;73.80;;;;;;5046240;28;20551;-79
2022/07/17 11:12:55;;;;;;;1.80;1.10;;;25.30;74.50;;;;;;5053311;28;20497;-77
2022/07/17 11:15:24;;;;;;;13.93;1.80;;;25.20;75.00;;;;;;5053402;28;20879;-76
2022/07/17 11:17:51;;;;;;;4.13;1.20;;;25.00;74.50;;;;;;5053168;28;20446;-77
2022/07/17 11:20:18;;;;;;;2.27;1.30;;;25.00;73.80;;;;;;5049818;28;20865;-77
2022/07/17 11:22:46;;;;;;;3.13;1.37;;;25.10;75.00;;;;;;5052985;28;20462;-78
2022/07/17 11:25:13;;;;;;;4.50;1.83;;;25.10;72.80;;;;;;5041439;28;20545;-78
2022/07/17 11:27:40;;;;;;;5.83;1.50;;;25.00;73.20;;;;;;5045178;28;20528;-78
2022/07/17 11:30:13;;;;;;;2.93;1.67;;;24.80;74.10;;;;;;5056531;28;20485;-76
2022/07/17 11:32:42;;;;;;;7.03;2.07;;;24.60;74.70;;;;;;5045555;28;20851;-77
2022/07/17 11:35:16;;;;;;;3.90;2.07;;;24.50;75.20;;;;;;5063137;28;20470;-77
2022/07/17 11:37:43;;;;;;;2.97;1.40;;;24.70;75.80;;;;;;5051204;28;20480;-78
2022/07/17 11:40:11;;;;;;;6.30;1.93;;;24.80;75.70;;;;;;5044099;28;20442;-77
2022/07/17 11:42:38;;;;;;;5.70;1.50;;;24.80;75.30;;;;;;5046732;28;20493;-77
2022/07/17 11:45:06;;;;;;;3.03;1.50;;;24.80;74.60;;;;;;5045936;28;20439;-78
2022/07/17 11:47:34;;;;;;;4.80;2.00;;;24.70;74.30;;;;;;5049852;28;20447;-78
2022/07/17 11:50:11;;;;;;;3.50;1.33;;;24.60;75.00;;;;;;5062374;28;20582;-77
2022/07/17 11:52:43;;;;;;;5.83;2.13;;;24.40;75.30;;;;;;5054957;28;21180;-78
2022/07/17 11:55:10;;;;;;;4.47;1.90;;;24.60;76.20;;;;;;5054338;28;20800;-78
2022/07/17 11:57:48;;;;;;;4.27;1.43;;;24.50;75.10;;;;;;5057221;28;20439;-78
2022/07/17 12:00:17;;;;;;;5.07;1.60;;;24.40;75.60;;;;;;5041259;28;20439;-77
2022/07/17 12:02:44;;;;;;;7.63;1.57;;;24.50;76.20;;;;;;5036298;28;20466;-78
2022/07/17 12:05:13;;;;;;;5.80;1.60;;;24.50;75.00;;;;;;5046266;28;20533;-77
2022/07/17 12:07:44;;;;;;;4.63;1.60;;;24.60;75.70;;;;;;5045767;28;20990;-78
2022/07/17 12:10:16;;;;;;;3.13;1.80;;;24.70;75.00;;;;;;5048093;28;20506;-76
2022/07/17 12:12:56;;;;;;;3.10;1.57;;;24.60;73.80;;;;;;5047987;28;20476;-76
2022/07/17 12:15:34;;;;;;;8.10;1.60;;;24.40;73.80;;;;;;5051039;28;20453;-78
2022/07/17 12:18:01;;;;;;;6.87;1.83;;;24.30;75.00;;;;;;5055677;28;20935;-78
2022/07/17 12:20:42;;;;;;;2.53;1.67;;;24.00;75.60;;;;;;5055169;28;20450;-77
2022/07/17 12:23:09;;;;;;;4.20;1.67;;;24.20;75.70;;;;;;5054420;28;20866;-78
2022/07/17 12:25:36;;;;;;;3.37;1.13;;;23.80;73.60;;;;;;5044986;28;20451;-78
2022/07/17 12:28:03;;;;;;;3.80;1.27;;;23.70;76.00;;;;;;5056402;28;20452;-77
2022/07/17 12:30:32;;;;;;;2.10;1.30;;;23.70;76.10;;;;;;5042982;28;20588;-77
2022/07/17 12:32:59;;;;;;;6.03;1.57;;;23.90;77.00;;;;;;5047323;28;20811;-78
2022/07/17 12:35:26;;;;;;;5.87;1.73;;;24.10;76.70;;;;;;5053066;28;20474;-78
2022/07/17 12:37:54;;;;;;;3.90;2.10;;;24.20;76.80;;;;;;5049091;28;20449;-79
2022/07/17 12:40:21;;;;;;;2.43;1.20;;;24.30;76.40;;;;;;5053553;28;20446;-78
2022/07/17 12:42:48;;;;;;;3.50;1.20;;;24.20;75.80;;;;;;5055809;28;20546;-77
2022/07/17 12:45:15;;;;;;;3.00;1.30;;;24.20;77.30;;;;;;5050792;28;20445;-77
2022/07/17 12:47:42;;;;;;;3.07;1.67;;;24.20;76.80;;;;;;5056138;28;20861;-76
2022/07/17 12:50:10;;;;;;;2.60;1.00;;;24.00;76.90;;;;;;5052022;28;21027;-77
2022/07/17 12:52:37;;;;;;;4.07;1.60;;;24.20;77.50;;;;;;5052542;28;20484;-78